createdAt,value
2019-05-25T00:01:55.482Z,9.37
2019-05-25T00:04:27.178Z,8.10
2019-05-25T00:06:56.455Z,8.10
2019-05-25T00:09:29.037Z,10.00
2019-05-25T00:12:01.195Z,8.97
2019-05-25T00:14:30.372Z,8.77
2019-05-25T00:16:59.512Z,8.70
2019-05-25T00:19:42.399Z,8.90
2019-05-25T00:22:11.610Z,8.57
2019-05-25T00:24:42.967Z,9.30
2019-05-25T00:27:15.761Z,9.27
2019-05-25T00:29:47.088Z,9.87
2019-05-25T00:32:15.766Z,8.80
2019-05-25T00:34:44.946Z,10.30
2019-05-25T00:37:15.290Z,8.73
2019-05-25T00:39:44.432Z,8.97
2019-05-25T00:42:13.572Z,9.37
2019-05-25T00:44:45.815Z,10.17
2019-05-25T00:47:17.947Z,8.93
2019-05-25T00:49:53.162Z,9.07
2019-05-25T00:52:25.367Z,9.13
2019-05-25T00:54:54.792Z,10.20
2019-05-25T00:57:24.013Z,9.73
2019-05-25T00:59:53.268Z,10.10
2019-05-25T01:02:22.577Z,9.20
2019-05-25T01:04:53.032Z,9.77
2019-05-25T01:07:28.133Z,9.53
2019-05-25T01:09:57.819Z,9.40
2019-05-25T01:12:31.479Z,9.57
2019-05-25T01:15:01.689Z,8.60
2019-05-25T01:17:34.017Z,8.67
2019-05-25T01:20:04.338Z,9.87
2019-05-25T01:22:39.753Z,9.10
2019-05-25T01:25:09.275Z,9.30
2019-05-25T01:27:38.609Z,9.57
2019-05-25T01:30:08.504Z,9.47
2019-05-25T01:32:37.631Z,9.60
2019-05-25T01:35:07.412Z,8.53
2019-05-25T01:37:36.977Z,9.50
2019-05-25T01:40:09.894Z,10.40
2019-05-25T01:42:43.183Z,9.10
2019-05-25T01:45:15.637Z,10.20
2019-05-25T01:47:44.786Z,10.60
2019-05-25T01:50:15.117Z,9.00
2019-05-25T01:52:44.530Z,9.97
2019-05-25T01:55:13.975Z,10.17
2019-05-25T01:57:44.872Z,8.83
2019-05-25T02:00:14.569Z,8.77
2019-05-25T02:02:44.142Z,9.30
2019-05-25T02:05:13.355Z,7.70
2019-05-25T02:07:44.157Z,9.17
2019-05-25T02:10:14.247Z,9.27
2019-05-25T02:12:43.372Z,8.90
2019-05-25T02:15:12.942Z,8.50
2019-05-25T02:17:44.193Z,9.10
2019-05-25T02:20:16.994Z,10.23
2019-05-25T02:22:46.646Z,10.47
2019-05-25T02:25:21.525Z,11.53
2019-05-25T02:27:51.023Z,11.30
2019-05-25T02:30:22.254Z,13.53
2019-05-25T02:32:54.371Z,13.00
2019-05-25T02:35:30.302Z,12.33
2019-05-25T02:38:01.445Z,9.80
2019-05-25T02:40:33.250Z,9.60
2019-05-25T02:43:04.040Z,8.93
2019-05-25T02:45:33.191Z,9.50
2019-05-25T02:48:02.437Z,8.87
2019-05-25T02:50:31.545Z,8.07
2019-05-25T02:53:02.160Z,9.53
2019-05-25T02:55:37.662Z,9.73
2019-05-25T02:58:06.839Z,11.10
2019-05-25T03:00:36.254Z,9.77
2019-05-25T03:03:07.094Z,9.80
2019-05-25T03:05:38.060Z,9.00
2019-05-25T03:08:14.330Z,8.47
2019-05-25T03:10:44.270Z,9.13
2019-05-25T03:13:13.841Z,8.73
2019-05-25T03:15:42.982Z,9.67
2019-05-25T03:18:13.401Z,9.90
2019-05-25T03:20:42.519Z,9.27
2019-05-25T03:23:13.546Z,9.13
2019-05-25T03:25:49.576Z,9.80
2019-05-25T03:28:14.760Z,9.57
2019-05-25T03:30:46.273Z,11.93
2019-05-25T03:33:15.724Z,10.30
2019-05-25T03:35:44.953Z,10.03
2019-05-25T03:38:16.937Z,9.93
2019-05-25T03:40:48.551Z,9.90
2019-05-25T03:43:17.680Z,9.50
2019-05-25T03:45:46.865Z,9.77
2019-05-25T03:48:15.986Z,11.10
2019-05-25T03:50:45.055Z,9.70
2019-05-25T03:53:14.309Z,9.80
2019-05-25T03:55:46.199Z,9.73
2019-05-25T03:58:18.638Z,10.40
2019-05-25T04:00:50.746Z,9.80
2019-05-25T04:03:20.989Z,10.60
2019-05-25T04:05:51.387Z,10.27
2019-05-25T04:08:20.713Z,10.20
2019-05-25T04:10:53.034Z,9.77
2019-05-25T04:13:25.304Z,10.30
2019-05-25T04:15:54.595Z,10.70
2019-05-25T04:18:23.779Z,10.00
2019-05-25T04:20:54.010Z,10.37
2019-05-25T04:23:24.898Z,10.30
2019-05-25T04:25:58.617Z,9.50
2019-05-25T04:28:30.148Z,11.93
2019-05-25T04:30:59.316Z,10.93
2019-05-25T04:33:28.683Z,10.10
2019-05-25T04:36:00.918Z,9.93
2019-05-25T04:38:30.531Z,10.53
2019-05-25T04:41:02.069Z,10.97
2019-05-25T04:43:32.682Z,11.80
2019-05-25T04:46:04.491Z,12.30
2019-05-25T04:48:35.274Z,12.77
2019-05-25T04:51:04.405Z,12.83
2019-05-25T04:53:34.806Z,11.23
2019-05-25T04:56:08.788Z,11.80
2019-05-25T04:58:39.223Z,11.17
2019-05-25T05:01:22.446Z,10.87
2019-05-25T05:03:48.616Z,13.50
2019-05-25T05:06:17.733Z,10.57
2019-05-25T05:08:48.279Z,10.90
2019-05-25T05:11:20.720Z,10.80
2019-05-25T05:13:50.262Z,11.70
2019-05-25T05:16:22.945Z,11.37
2019-05-25T05:18:52.081Z,11.67
2019-05-25T05:21:21.186Z,11.77
2019-05-25T05:23:52.323Z,10.10
2019-05-25T05:26:21.889Z,11.17
2019-05-25T05:28:58.627Z,11.80
2019-05-25T05:31:31.307Z,10.60
2019-05-25T05:34:03.756Z,11.53
2019-05-25T05:36:33.903Z,10.90
2019-05-25T05:39:08.871Z,11.40
2019-05-25T05:41:39.915Z,10.90
2019-05-25T05:44:09.943Z,11.17
2019-05-25T05:46:43.675Z,10.00
2019-05-25T05:49:20.260Z,10.47
2019-05-25T05:51:51.340Z,11.13
2019-05-25T05:54:23.258Z,9.70
2019-05-25T05:56:52.410Z,9.57
2019-05-25T05:59:26.006Z,9.73
2019-05-25T06:01:55.131Z,9.47
2019-05-25T06:04:24.373Z,8.77
2019-05-25T06:06:54.968Z,9.10
2019-05-25T06:09:24.262Z,8.70
2019-05-25T06:11:55.207Z,10.37
2019-05-25T06:14:24.366Z,8.80
2019-05-25T06:16:54.699Z,9.77
2019-05-25T06:19:26.447Z,9.37
2019-05-25T06:21:57.221Z,10.20
2019-05-25T06:24:28.021Z,9.20
2019-05-25T06:26:57.138Z,8.60
2019-05-25T06:29:28.083Z,9.37
2019-05-25T06:31:59.486Z,8.80
2019-05-25T06:34:31.660Z,9.03
2019-05-25T06:37:00.994Z,8.83
2019-05-25T06:39:31.808Z,8.83
2019-05-25T06:42:01.035Z,9.37
2019-05-25T06:44:30.195Z,7.87
2019-05-25T06:46:59.424Z,8.60
2019-05-25T06:49:33.508Z,10.07
2019-05-25T06:52:04.361Z,8.40
2019-05-25T06:54:33.546Z,9.07
2019-05-25T06:57:02.935Z,9.10
2019-05-25T06:59:35.354Z,9.20
2019-05-25T07:02:04.820Z,9.70
2019-05-25T07:04:38.343Z,10.77
2019-05-25T07:07:12.950Z,8.70
2019-05-25T07:09:44.773Z,8.90
2019-05-25T07:12:13.866Z,8.63
2019-05-25T07:14:44.223Z,9.43
2019-05-25T07:17:17.911Z,8.40
2019-05-25T07:19:48.808Z,9.03
2019-05-25T07:22:23.515Z,9.10
2019-05-25T07:24:55.079Z,9.00
2019-05-25T07:27:29.085Z,10.00
2019-05-25T07:30:01.324Z,10.07
2019-05-25T07:32:30.482Z,10.03
2019-05-25T07:35:00.199Z,8.83
2019-05-25T07:37:32.185Z,9.20
2019-05-25T07:40:08.945Z,8.60
2019-05-25T07:42:43.542Z,9.07
2019-05-25T07:45:17.883Z,9.13
2019-05-25T07:47:47.051Z,9.27
2019-05-25T07:50:17.117Z,8.87
2019-05-25T07:52:46.866Z,10.53
2019-05-25T07:55:19.831Z,9.43
2019-05-25T07:57:48.964Z,9.80
2019-05-25T08:00:18.467Z,10.80
2019-05-25T08:02:47.732Z,9.63
2019-05-25T08:05:17.181Z,9.80
2019-05-25T08:07:51.010Z,9.80
2019-05-25T08:10:21.851Z,10.27
2019-05-25T08:12:51.750Z,10.77
2019-05-25T08:15:21.364Z,11.20
2019-05-25T08:17:52.827Z,10.57
2019-05-25T08:20:23.928Z,12.50
2019-05-25T08:22:54.622Z,11.20
2019-05-25T08:25:27.381Z,10.23
2019-05-25T08:27:56.741Z,11.80
2019-05-25T08:30:26.196Z,11.80
2019-05-25T08:32:57.877Z,10.83
2019-05-25T08:35:29.357Z,12.33
2019-05-25T08:37:59.289Z,14.20
2019-05-25T08:40:29.076Z,14.90
2019-05-25T08:42:58.140Z,15.03
2019-05-25T08:45:29.499Z,14.20
2019-05-25T08:47:59.182Z,15.47
2019-05-25T08:50:38.452Z,15.40
2019-05-25T08:52:59.490Z,14.90
2019-05-25T08:55:28.903Z,14.47
2019-05-25T08:57:58.145Z,13.10
2019-05-25T09:00:30.478Z,14.87
2019-05-25T09:02:59.894Z,15.40
2019-05-25T09:05:36.358Z,12.77
2019-05-25T09:08:05.839Z,13.83
2019-05-25T09:10:35.233Z,12.53
2019-05-25T09:13:05.229Z,13.40
2019-05-25T09:15:34.379Z,12.73
2019-05-25T09:18:04.865Z,13.93
2019-05-25T09:20:34.025Z,13.40
2019-05-25T09:23:03.181Z,15.00
2019-05-25T09:25:34.528Z,13.33
2019-05-25T09:28:03.708Z,12.83
2019-05-25T09:30:34.025Z,13.93
2019-05-25T09:33:06.123Z,14.00
2019-05-25T09:35:38.561Z,14.73
2019-05-25T09:38:12.346Z,12.67
2019-05-25T09:40:42.236Z,14.20
2019-05-25T09:43:15.843Z,12.73
2019-05-25T09:45:46.561Z,13.60
2019-05-25T09:48:16.866Z,14.00
2019-05-25T09:50:47.236Z,13.40
2019-05-25T09:53:18.142Z,13.20
2019-05-25T09:55:48.668Z,12.07
2019-05-25T09:58:24.360Z,13.37
2019-05-25T10:00:53.513Z,11.87
2019-05-25T10:03:25.134Z,11.57
2019-05-25T10:05:58.206Z,10.97
2019-05-25T10:08:29.185Z,12.93
2019-05-25T10:10:59.468Z,12.50
2019-05-25T10:13:31.336Z,14.40
2019-05-25T10:16:00.981Z,14.70
2019-05-25T10:18:30.175Z,13.90
2019-05-25T10:21:02.644Z,13.30
2019-05-25T10:23:32.022Z,14.10
2019-05-25T10:26:07.201Z,15.00
2019-05-25T10:28:38.417Z,12.83
2019-05-25T10:31:07.636Z,14.30
2019-05-25T10:33:36.800Z,13.97
2019-05-25T10:36:06.146Z,15.00
2019-05-25T10:38:36.126Z,13.77
2019-05-25T10:41:09.315Z,12.87
2019-05-25T10:43:43.661Z,12.27
2019-05-25T10:46:13.168Z,7.20
2019-05-25T10:48:47.365Z,5.17
2019-05-25T10:51:18.151Z,4.30
2019-05-25T10:53:47.261Z,4.43
2019-05-25T10:56:16.642Z,4.37
2019-05-25T10:58:46.192Z,3.97
2019-05-25T11:01:22.087Z,3.70
2019-05-25T11:03:54.462Z,3.87
2019-05-25T11:06:23.829Z,3.80
2019-05-25T11:08:52.910Z,3.87
2019-05-25T11:11:24.283Z,3.50
2019-05-25T11:13:57.763Z,3.70
2019-05-25T11:16:28.883Z,3.40
2019-05-25T11:18:58.290Z,3.60
2019-05-25T11:21:34.727Z,4.40
2019-05-25T11:24:06.925Z,3.70
2019-05-25T11:26:39.128Z,4.10
2019-05-25T11:29:08.257Z,4.37
2019-05-25T11:31:37.438Z,3.53
2019-05-25T11:34:13.668Z,4.20
2019-05-25T11:36:44.870Z,4.13
2019-05-25T11:39:16.184Z,4.40
2019-05-25T11:41:50.472Z,4.57
2019-05-25T11:44:21.124Z,4.90
2019-05-25T11:46:52.081Z,4.83
2019-05-25T11:49:29.620Z,5.70
2019-05-25T11:52:05.027Z,7.07
2019-05-25T11:54:33.889Z,7.00
2019-05-25T11:57:04.606Z,7.80
2019-05-25T11:59:44.586Z,10.80
2019-05-25T12:02:15.106Z,13.30
2019-05-25T12:07:24.652Z,12.97
2019-05-25T12:09:55.441Z,12.83
2019-05-25T12:12:25.691Z,12.80
2019-05-25T12:14:54.939Z,13.43
2019-05-25T12:17:26.179Z,12.10
2019-05-25T12:19:58.350Z,12.37
2019-05-25T12:22:27.578Z,13.47
2019-05-25T12:24:56.787Z,12.57
2019-05-25T12:27:27.073Z,10.60
2019-05-25T12:29:56.221Z,11.13
2019-05-25T12:32:28.081Z,11.53
2019-05-25T12:34:57.225Z,10.50
2019-05-25T12:37:27.869Z,13.00
2019-05-25T12:39:56.996Z,10.93
2019-05-25T12:42:27.298Z,10.50
2019-05-25T12:45:00.293Z,11.60
2019-05-25T12:47:30.933Z,13.80
2019-05-25T12:50:00.589Z,12.13
2019-05-25T12:52:31.641Z,10.80
2019-05-25T12:55:00.860Z,9.97
2019-05-25T12:57:33.786Z,10.70
2019-05-25T13:00:15.666Z,12.00
2019-05-25T13:02:41.277Z,11.17
2019-05-25T13:05:16.086Z,13.30
2019-05-25T13:07:47.623Z,12.40
2019-05-25T13:10:17.254Z,11.80
2019-05-25T13:12:49.489Z,10.70
2019-05-25T13:15:19.778Z,9.53
2019-05-25T13:17:48.971Z,9.90
2019-05-25T13:20:20.006Z,10.63
2019-05-25T13:22:50.671Z,9.80
2019-05-25T13:25:19.885Z,10.60
2019-05-25T13:27:52.258Z,9.73
2019-05-25T13:30:24.693Z,10.93
2019-05-25T13:32:55.593Z,10.50
2019-05-25T13:35:26.471Z,12.47
2019-05-25T13:37:55.996Z,9.40
2019-05-25T13:40:25.494Z,11.60
2019-05-25T13:42:54.764Z,10.87
2019-05-25T13:45:25.104Z,10.03
2019-05-25T13:47:56.821Z,11.30
2019-05-25T13:50:28.458Z,13.93
2019-05-25T13:53:00.547Z,11.27
2019-05-25T13:55:32.911Z,12.40
2019-05-25T13:58:03.877Z,11.20
2019-05-25T14:00:32.997Z,10.57
2019-05-25T14:03:03.485Z,9.90
2019-05-25T14:05:34.143Z,9.17
2019-05-25T14:08:03.406Z,8.73
2019-05-25T14:10:33.764Z,9.00
2019-05-25T14:13:12.306Z,9.13
2019-05-25T14:15:43.638Z,10.10
2019-05-25T14:18:14.394Z,10.90
2019-05-25T14:20:43.789Z,11.20
2019-05-25T14:23:14.284Z,11.17
2019-05-25T14:25:43.523Z,10.83
2019-05-25T14:28:12.842Z,11.10
2019-05-25T14:30:43.898Z,10.90
2019-05-25T14:33:14.683Z,11.80
2019-05-25T14:35:48.786Z,12.33
2019-05-25T14:38:17.929Z,13.03
2019-05-25T14:40:47.041Z,12.80
2019-05-25T14:43:16.172Z,12.20
2019-05-25T14:45:48.172Z,10.67
2019-05-25T14:48:19.230Z,11.70
2019-05-25T14:50:48.491Z,12.60
2019-05-25T14:53:17.647Z,11.90
2019-05-25T14:55:51.296Z,13.13
2019-05-25T14:58:21.648Z,12.00
2019-05-25T15:00:52.557Z,12.00
2019-05-25T15:03:21.908Z,12.47
2019-05-25T15:05:51.148Z,13.10
2019-05-25T15:08:22.449Z,12.03
2019-05-25T15:10:56.022Z,11.73
2019-05-25T15:13:25.587Z,13.23
2019-05-25T15:15:59.991Z,11.00
2019-05-25T15:18:30.655Z,10.80
2019-05-25T15:21:02.591Z,11.80
2019-05-25T15:23:31.835Z,11.50
2019-05-25T15:26:04.181Z,12.17
2019-05-25T15:28:34.195Z,14.20
2019-05-25T15:31:04.644Z,13.80
2019-05-25T15:33:38.218Z,12.97
2019-05-25T15:36:07.375Z,13.93
2019-05-25T15:38:36.498Z,16.40
2019-05-25T15:41:05.685Z,14.97
2019-05-25T15:43:37.633Z,14.23
2019-05-25T15:46:06.686Z,14.10
2019-05-25T15:48:36.899Z,15.47
2019-05-25T15:51:06.260Z,14.90
2019-05-25T15:53:35.335Z,14.83
2019-05-25T15:56:06.225Z,13.30
2019-05-25T15:58:38.699Z,13.47
2019-05-25T16:01:08.010Z,13.03
2019-05-25T16:03:37.136Z,12.83
2019-05-25T16:06:06.393Z,12.73
2019-05-25T16:08:37.405Z,13.10
2019-05-25T16:11:06.782Z,13.30
2019-05-25T16:13:36.097Z,15.47
2019-05-25T16:16:05.450Z,12.80
2019-05-25T16:18:36.418Z,13.20
2019-05-25T16:21:05.691Z,12.10
2019-05-25T16:23:37.445Z,11.80
2019-05-25T16:26:06.698Z,12.47
2019-05-25T16:28:38.641Z,10.30
2019-05-25T16:31:08.659Z,10.40
2019-05-25T16:33:38.061Z,11.33
2019-05-25T16:36:09.404Z,10.50
2019-05-25T16:38:44.213Z,11.07
2019-05-25T16:41:14.637Z,9.93
2019-05-25T16:43:46.908Z,9.33
2019-05-25T16:46:16.194Z,9.00
2019-05-25T16:48:45.392Z,9.23
2019-05-25T16:51:14.541Z,9.07
2019-05-25T16:53:43.734Z,9.20
2019-05-25T16:56:13.135Z,9.17
2019-05-25T16:58:47.660Z,9.07
2019-05-25T17:01:18.162Z,9.30
2019-05-25T17:03:48.597Z,8.77
2019-05-25T17:06:19.141Z,7.40
2019-05-25T17:08:49.452Z,8.10
2019-05-25T17:11:18.871Z,7.70
2019-05-25T17:13:48.064Z,8.30
2019-05-25T17:16:17.222Z,8.43
2019-05-25T17:18:47.934Z,7.53
2019-05-25T17:21:17.164Z,9.43
2019-05-25T17:23:47.403Z,7.90
2019-05-25T17:26:17.103Z,9.27
2019-05-25T17:28:46.240Z,7.90
2019-05-25T17:31:17.221Z,8.00
2019-05-25T17:33:48.371Z,7.70
2019-05-25T17:36:18.715Z,6.53
2019-05-25T17:38:49.165Z,7.50
2019-05-25T17:41:22.912Z,7.10
2019-05-25T17:43:53.560Z,8.03
2019-05-25T17:46:24.031Z,7.63
2019-05-25T17:48:53.341Z,7.70
2019-05-25T17:51:22.834Z,8.20
2019-05-25T17:53:51.990Z,7.97
2019-05-25T17:56:21.180Z,8.37
2019-05-25T17:58:51.536Z,7.37
2019-05-25T18:01:22.392Z,7.90
2019-05-25T18:04:05.666Z,7.47
2019-05-25T18:06:22.400Z,8.47
2019-05-25T18:08:51.644Z,7.80
2019-05-25T18:11:20.992Z,7.33
2019-05-25T18:14:11.203Z,8.47
2019-05-25T18:16:40.404Z,8.90
2019-05-25T18:19:09.976Z,7.50
2019-05-25T18:21:39.291Z,7.43
2019-05-25T18:24:13.867Z,7.67
2019-05-25T18:26:45.295Z,7.23
2019-05-25T18:29:14.436Z,6.50
2019-05-25T18:31:48.227Z,6.50
2019-05-25T18:34:22.137Z,6.70
2019-05-25T18:36:50.644Z,6.77
2019-05-25T18:39:23.124Z,6.30
2019-05-25T18:41:53.278Z,6.60
2019-05-25T18:44:22.820Z,6.57
2019-05-25T18:46:58.778Z,7.80
2019-05-25T18:49:29.423Z,6.80
2019-05-25T18:52:00.671Z,7.07
2019-05-25T18:54:30.524Z,6.80
2019-05-25T18:57:04.499Z,6.37
2019-05-25T18:59:31.439Z,7.27
2019-05-25T19:02:02.397Z,6.87
2019-05-25T19:04:45.017Z,6.90
2019-05-25T19:07:02.519Z,7.17
2019-05-25T19:09:31.754Z,7.13
2019-05-25T19:12:05.149Z,6.60
2019-05-25T19:14:34.571Z,7.10
2019-05-25T19:17:03.911Z,7.73
2019-05-25T19:19:33.170Z,7.27
2019-05-25T19:22:02.373Z,7.90
2019-05-25T19:24:32.601Z,8.77
2019-05-25T19:27:08.042Z,7.37
2019-05-25T19:29:38.538Z,7.07
2019-05-25T19:32:08.004Z,6.90
2019-05-25T19:34:56.574Z,7.47
2019-05-25T19:37:12.740Z,6.53
2019-05-25T19:40:08.744Z,6.30
2019-05-25T19:42:37.430Z,7.40
2019-05-25T19:45:10.083Z,6.00
2019-05-25T19:47:39.645Z,5.70
2019-05-25T19:50:12.622Z,6.60
2019-05-25T19:52:41.780Z,8.30
2019-05-25T19:55:11.785Z,6.30
2019-05-25T19:57:44.887Z,7.20
2019-05-25T20:00:15.642Z,7.50
2019-05-25T20:02:43.053Z,7.03
2019-05-25T20:05:16.968Z,6.57
2019-05-25T20:07:45.051Z,7.17
2019-05-25T20:10:14.741Z,6.70
2019-05-25T20:12:45.652Z,6.10
2019-05-25T20:15:16.345Z,6.87
2019-05-25T20:17:45.473Z,6.03
2019-05-25T20:20:15.228Z,6.33
2019-05-25T20:22:48.680Z,5.63
2019-05-25T20:25:18.275Z,6.03
2019-05-25T20:27:50.742Z,6.13
2019-05-25T20:30:22.033Z,6.50
2019-05-25T20:32:51.278Z,5.50
2019-05-25T20:35:33.062Z,5.20
2019-05-25T20:37:58.971Z,6.37
2019-05-25T20:40:28.138Z,5.80
2019-05-25T20:42:57.277Z,6.80
2019-05-25T20:45:26.489Z,6.40
2019-05-25T20:47:57.650Z,6.63
2019-05-25T20:50:29.664Z,6.00
2019-05-25T20:53:01.221Z,6.60
2019-05-25T20:55:30.414Z,5.80
2019-05-25T20:58:01.201Z,6.63
2019-05-25T21:00:34.233Z,6.97
2019-05-25T21:03:06.991Z,7.30
2019-05-25T21:05:49.768Z,7.97
2019-05-25T21:08:09.027Z,7.97
2019-05-25T21:10:38.196Z,8.50
2019-05-25T21:13:08.029Z,7.20
2019-05-25T21:15:40.770Z,8.27
2019-05-25T21:18:10.294Z,8.07
2019-05-25T21:20:43.857Z,8.90
2019-05-25T21:23:14.647Z,8.50
2019-05-25T21:25:43.777Z,8.80
2019-05-25T21:28:12.911Z,8.60
2019-05-25T21:30:48.208Z,8.90
2019-05-25T21:33:18.359Z,7.77
2019-05-25T21:35:47.555Z,7.80
2019-05-25T21:38:16.725Z,8.57
2019-05-25T21:40:45.866Z,8.40
2019-05-25T21:43:15.152Z,8.30
2019-05-25T21:45:44.362Z,9.53
2019-05-25T21:48:15.030Z,9.10
2019-05-25T21:50:44.191Z,9.03
2019-05-25T21:53:15.537Z,8.30
2019-05-25T21:55:45.852Z,9.50
2019-05-25T21:58:14.972Z,8.93
2019-05-25T22:00:45.508Z,9.80
2019-05-25T22:03:16.389Z,9.70
2019-05-25T22:05:49.731Z,10.23
2019-05-25T22:08:22.051Z,10.90
2019-05-25T22:10:51.259Z,10.30
2019-05-25T22:13:28.700Z,10.67
2019-05-25T22:15:55.433Z,9.50
2019-05-25T22:18:24.556Z,9.80
2019-05-25T22:20:53.670Z,10.50
2019-05-25T22:23:23.931Z,10.57
2019-05-25T22:25:53.047Z,10.87
2019-05-25T22:28:24.897Z,11.13
2019-05-25T22:30:54.168Z,9.23
2019-05-25T22:33:25.354Z,9.10
2019-05-25T22:35:54.668Z,9.70
2019-05-25T22:38:24.333Z,10.10
2019-05-25T22:40:53.481Z,9.60
2019-05-25T22:43:25.206Z,8.37
2019-05-25T22:45:56.582Z,9.00
2019-05-25T22:48:31.985Z,9.70
2019-05-25T22:51:09.876Z,8.07
2019-05-25T22:53:39.247Z,8.00
2019-05-25T22:56:08.399Z,8.97
2019-05-25T22:58:38.822Z,8.23
2019-05-25T23:01:07.953Z,8.00
2019-05-25T23:03:42.845Z,8.27
2019-05-25T23:06:13.435Z,8.00
2019-05-25T23:08:46.773Z,8.97
2019-05-25T23:11:15.994Z,8.43
2019-05-25T23:13:47.228Z,8.80
2019-05-25T23:16:20.066Z,9.60
2019-05-25T23:18:50.165Z,8.87
2019-05-25T23:21:19.272Z,8.73
2019-05-25T23:23:48.948Z,8.10
2019-05-25T23:26:18.109Z,10.10
2019-05-25T23:28:54.557Z,8.03
2019-05-25T23:31:26.376Z,10.33
2019-05-25T23:33:56.800Z,9.90
2019-05-25T23:36:26.363Z,8.80
2019-05-25T23:38:55.486Z,10.90
2019-05-25T23:41:24.633Z,10.70
2019-05-25T23:43:55.082Z,9.20
2019-05-25T23:46:33.599Z,9.47
2019-05-25T23:49:02.893Z,10.20
2019-05-25T23:51:32.011Z,10.80
2019-05-25T23:54:02.893Z,10.97
2019-05-25T23:56:32.290Z,10.40
2019-05-25T23:59:04.749Z,8.13
